Time;durP1;ratioP1;P1;durP2;ratioP2;P2;SDS_P1;SDS_P2;PMS_P1;PMS_P2;Temp;Humidity;BMP_temperature;BMP_pressure;BME280_temperature;BME280_humidity;BME280_pressure;Samples;Min_cycle;Max_cycle;Signal;HPM_P1;HPM_P2
2022/08/09 00:01:22;;;;;;;3.35;3.05;;;14.90;99.90;;;;;;5092068;28;19920;-72
2022/08/09 00:03:48;;;;;;;;;;;14.70;99.90;;;;;;5090996;28;20051;-73
2022/08/09 00:06:13;;;;;;;4.20;3.00;;;14.60;99.90;;;;;;5090549;28;20307;-73
2022/08/09 00:08:39;;;;;;;;;;;14.50;99.90;;;;;;5090876;28;20043;-73
2022/08/09 00:11:05;;;;;;;4.93;3.20;;;14.40;99.90;;;;;;5092119;28;19923;-72
2022/08/09 00:13:30;;;;;;;;;;;14.20;99.90;;;;;;5092238;28;20076;-72
2022/08/09 00:15:56;;;;;;;6.03;3.08;;;14.60;99.90;;;;;;5091857;28;19920;-73
2022/08/09 00:18:22;;;;;;;;;;;14.70;99.90;;;;;;5091233;28;20042;-74
2022/08/09 00:20:47;;;;;;;4.30;3.13;;;14.50;99.90;;;;;;5091966;28;20362;-72
2022/08/09 00:23:13;;;;;;;;;;;14.80;99.90;;;;;;5092202;28;20048;-72
2022/08/09 00:25:38;;;;;;;4.28;2.80;;;14.20;99.90;;;;;;5091889;28;19927;-71
2022/08/09 00:28:05;;;;;;;;;;;14.80;99.90;;;;;;5092344;28;20089;-73
2022/08/09 00:30:32;;;;;;;6.05;2.90;;;14.30;99.90;;;;;;5092078;28;19946;-74
2022/08/09 00:32:58;;;;;;;4.18;3.17;;;14.40;99.90;;;;;;5091813;28;20063;-74
2022/08/09 00:35:24;;;;;;;3.38;3.08;;;14.30;99.90;;;;;;5091812;28;20048;-73
2022/08/09 00:37:50;;;;;;;5.78;4.47;;;14.50;99.90;;;;;;5091553;28;20344;-73
2022/08/09 00:40:15;;;;;;;;;;;14.40;99.90;;;;;;5092349;28;20052;-70
2022/08/09 00:42:41;;;;;;;5.10;4.00;;;14.10;99.90;;;;;;5091352;28;19924;-70
2022/08/09 00:45:07;;;;;;;;;;;14.40;99.90;;;;;;5092105;28;20069;-73
2022/08/09 00:47:32;;;;;;;6.38;4.00;;;14.00;99.90;;;;;;5091793;28;19920;-73
2022/08/09 00:49:58;;;;;;;;;;;13.90;99.90;;;;;;5092663;28;20047;-73
2022/08/09 00:52:25;;;;;;;8.07;4.05;;;14.30;99.90;;;;;;5095646;28;19927;-72
2022/08/09 00:54:52;;;;;;;5.07;4.13;;;14.30;99.90;;;;;;5095610;28;20059;-72
2022/08/09 00:57:19;;;;;;;5.53;3.70;;;14.30;99.90;;;;;;5095245;28;20511;-73
2022/08/09 00:59:45;;;;;;;4.35;3.75;;;14.30;99.90;;;;;;5095562;28;20044;-75
2022/08/09 01:02:11;;;;;;;5.75;4.07;;;14.30;99.90;;;;;;5095663;28;20148;-74
2022/08/09 01:04:40;;;;;;;;;;;13.90;99.90;;;;;;5095785;28;20091;-73
2022/08/09 01:07:21;;;;;;;5.53;3.65;;;14.20;99.90;;;;;;5095318;28;19959;-75
2022/08/09 01:10:18;;;;;;;5.45;3.17;;;14.10;99.90;;;;;;5095600;28;20055;-73
2022/08/09 01:12:53;;;;;;;;;;;14.00;99.90;;;;;;5089756;28;20071;-73
2022/08/09 01:15:24;;;;;;;3.83;2.90;;;14.10;99.90;;;;;;5095342;28;19969;-74
2022/08/09 01:18:03;;;;;;;3.55;2.80;;;14.10;99.90;;;;;;5095172;28;20047;-74
2022/08/09 01:20:45;;;;;;;3.78;2.60;;;14.10;99.90;;;;;;5095328;28;20097;-74
2022/08/09 01:23:23;;;;;;;4.53;2.50;;;14.20;99.90;;;;;;5094078;28;20062;-75
2022/08/09 01:26:07;;;;;;;2.90;2.50;;;13.90;99.90;;;;;;5094630;28;20056;-73
2022/08/09 01:28:35;;;;;;;3.10;2.75;;;14.40;99.90;;;;;;5094763;28;20056;-72
2022/08/09 01:31:04;;;;;;;3.08;2.63;;;14.00;99.90;;;;;;5095033;28;20044;-72
2022/08/09 01:33:35;;;;;;;4.20;2.50;;;14.00;99.90;;;;;;5094922;28;20044;-73
2022/08/09 01:36:10;;;;;;;3.17;2.60;;;13.90;99.90;;;;;;5094961;28;20798;-71
2022/08/09 01:38:41;;;;;;;4.68;3.20;;;13.60;99.90;;;;;;5094726;28;20040;-73
2022/08/09 01:41:13;;;;;;;5.75;3.60;;;13.80;99.90;;;;;;5094715;28;20055;-73
2022/08/09 01:43:43;;;;;;;6.55;2.90;;;13.60;99.90;;;;;;5094754;28;20070;-74
2022/08/09 01:46:10;;;;;;;7.78;2.75;;;13.90;99.90;;;;;;5094762;28;20052;-73
2022/08/09 01:48:37;;;;;;;7.22;3.22;;;13.20;99.90;;;;;;5094586;28;20050;-73
2022/08/09 01:51:03;;;;;;;4.63;3.00;;;13.50;99.90;;;;;;5094458;28;20440;-74
2022/08/09 01:53:31;;;;;;;4.65;3.47;;;13.50;99.90;;;;;;5094723;28;20047;-74
2022/08/09 01:55:58;;;;;;;3.50;3.20;;;13.30;99.90;;;;;;5093173;28;20048;-75
2022/08/09 01:58:25;;;;;;;6.60;3.65;;;14.30;99.90;;;;;;5094447;28;20396;-73
2022/08/09 02:00:53;;;;;;;6.50;3.67;;;13.50;99.90;;;;;;5092813;28;20055;-74
2022/08/09 02:03:20;;;;;;;4.35;2.85;;;13.40;99.90;;;;;;5093010;28;20416;-74
2022/08/09 02:05:48;;;;;;;5.70;3.58;;;14.00;99.90;;;;;;5094290;28;20044;-73
2022/08/09 02:08:18;;;;;;;4.85;3.75;;;13.90;99.90;;;;;;5094312;28;20109;-75
2022/08/09 02:10:47;;;;;;;4.78;2.90;;;13.60;99.90;;;;;;5092890;28;20123;-73
2022/08/09 02:13:15;;;;;;;3.15;2.85;;;13.20;99.90;;;;;;5094238;28;20052;-73
2022/08/09 02:15:44;;;;;;;3.35;2.80;;;14.10;99.90;;;;;;5092864;28;20502;-74
2022/08/09 02:18:11;;;;;;;3.75;2.92;;;13.70;99.90;;;;;;5092965;28;20052;-75
2022/08/09 02:20:57;;;;;;;7.95;3.40;;;13.10;99.90;;;;;;5094389;28;20404;-73
2022/08/09 02:23:36;;;;;;;7.78;3.28;;;13.10;99.90;;;;;;5094172;28;20044;-74
2022/08/09 02:26:03;;;;;;;5.25;3.55;;;14.60;99.90;;;;;;5094003;28;20155;-74
2022/08/09 02:28:37;;;;;;;6.18;3.70;;;13.40;99.90;;;;;;5093431;28;20036;-74
2022/08/09 02:31:25;;;;;;;4.18;3.78;;;13.00;99.90;;;;;;5093877;28;20051;-72
2022/08/09 02:33:55;;;;;;;4.00;3.50;;;13.40;99.90;;;;;;5093829;28;20492;-71
2022/08/09 02:36:31;;;;;;;5.72;3.35;;;13.20;99.90;;;;;;5093772;28;20518;-72
2022/08/09 02:39:01;;;;;;;4.75;3.40;;;13.40;99.90;;;;;;5093327;28;20044;-75
2022/08/09 02:41:43;;;;;;;5.05;3.35;;;13.40;99.90;;;;;;5093847;28;20131;-74
2022/08/09 02:44:15;;;;;;;6.63;3.63;;;13.20;99.90;;;;;;5092374;28;20403;-75
2022/08/09 02:46:42;;;;;;;7.07;3.08;;;14.50;99.90;;;;;;5093680;28;20056;-75
2022/08/09 02:49:11;;;;;;;6.88;2.95;;;13.20;99.90;;;;;;5093343;28;20052;-74
2022/08/09 02:51:40;;;;;;;3.70;2.92;;;13.40;99.90;;;;;;5092308;28;20044;-74
2022/08/09 02:54:09;;;;;;;3.28;2.70;;;13.40;99.90;;;;;;5093215;28;20099;-75
2022/08/09 02:56:36;;;;;;;5.43;3.47;;;13.30;99.90;;;;;;5093378;28;20052;-75
2022/08/09 02:59:04;;;;;;;3.92;3.20;;;13.20;99.90;;;;;;5093389;28;20051;-74
2022/08/09 03:01:31;;;;;;;4.53;3.42;;;13.20;99.90;;;;;;5093220;28;20091;-75
2022/08/09 03:03:59;;;;;;;4.18;3.08;;;13.10;99.90;;;;;;5093116;28;20088;-74
2022/08/09 03:06:26;;;;;;;5.15;3.20;;;13.20;99.90;;;;;;5093106;28;20048;-74
2022/08/09 03:08:53;;;;;;;4.93;3.10;;;13.20;99.90;;;;;;5092880;28;20446;-73
2022/08/09 03:11:22;;;;;;;6.32;3.80;;;13.30;99.90;;;;;;5093204;28;20052;-73
2022/08/09 03:13:48;;;;;;;4.22;3.83;;;13.40;99.90;;;;;;5092188;28;20048;-74
2022/08/09 03:16:17;;;;;;;4.93;3.50;;;13.20;99.90;;;;;;5092970;28;20105;-74
2022/08/09 03:18:47;;;;;;;5.88;3.70;;;13.30;99.90;;;;;;5092758;28;20088;-73
2022/08/09 03:21:18;;;;;;;7.30;3.53;;;13.10;99.90;;;;;;5092103;28;20067;-73
2022/08/09 03:23:47;;;;;;;4.10;3.70;;;13.10;99.90;;;;;;5092349;28;20047;-74
2022/08/09 03:26:17;;;;;;;3.92;3.22;;;13.40;99.90;;;;;;5092830;28;20044;-75
2022/08/09 03:28:45;;;;;;;4.57;3.33;;;13.20;99.90;;;;;;5092516;28;20048;-78
2022/08/09 03:31:12;;;;;;;3.50;3.20;;;13.40;99.90;;;;;;5092535;28;20499;-73
2022/08/09 03:33:38;;;;;;;4.53;3.15;;;13.30;99.90;;;;;;5091444;28;20488;-75
2022/08/09 03:36:06;;;;;;;4.82;3.13;;;13.20;99.90;;;;;;5092309;28;20048;-73
2022/08/09 03:38:33;;;;;;;5.72;3.58;;;12.90;99.90;;;;;;5092567;28;20488;-72
2022/08/09 03:40:58;;;;;;;6.30;3.90;;;12.90;99.90;;;;;;5092311;28;20055;-74
2022/08/09 03:43:26;;;;;;;3.97;3.10;;;13.10;99.90;;;;;;5092454;28;20040;-72
2022/08/09 03:45:52;;;;;;;6.03;3.80;;;13.00;99.90;;;;;;5091243;28;20091;-73
2022/08/09 03:48:21;;;;;;;3.58;3.10;;;13.50;99.90;;;;;;5092415;28;20476;-74
2022/08/09 03:50:47;;;;;;;5.72;3.50;;;12.90;99.90;;;;;;5092155;28;20040;-74
2022/08/09 03:53:15;;;;;;;4.75;4.18;;;12.60;99.90;;;;;;5091103;28;20052;-74
2022/08/09 03:55:41;;;;;;;5.13;4.20;;;13.10;99.90;;;;;;5092274;28;20048;-74
2022/08/09 03:58:06;;;;;;;5.30;3.75;;;12.80;99.90;;;;;;5092147;28;20040;-74
2022/08/09 04:00:32;;;;;;;5.18;3.53;;;12.90;99.90;;;;;;5092424;28;20077;-74
2022/08/09 04:02:59;;;;;;;4.20;3.75;;;13.60;99.90;;;;;;5090883;28;20060;-74
2022/08/09 04:05:25;;;;;;;5.35;3.75;;;13.10;99.90;;;;;;5091992;28;20119;-74
2022/08/09 04:07:50;;;;;;;5.47;3.40;;;12.70;99.90;;;;;;5092407;28;20130;-75
2022/08/09 04:10:17;;;;;;;5.88;3.70;;;12.90;99.90;;;;;;5091025;28;20090;-74
2022/08/09 04:12:53;;;;;;;5.45;4.28;;;12.80;99.90;;;;;;5090972;28;20048;-73
2022/08/09 04:15:22;;;;;;;6.03;4.10;;;13.00;99.90;;;;;;5092086;28;20051;-74
2022/08/09 04:17:48;;;;;;;6.25;3.55;;;12.90;99.90;;;;;;5092093;28;20059;-75
2022/08/09 04:20:15;;;;;;;5.63;3.90;;;13.00;99.90;;;;;;5091609;28;20047;-74
2022/08/09 04:22:42;;;;;;;5.88;3.42;;;13.00;99.90;;;;;;5091814;28;20139;-74
2022/08/09 04:25:08;;;;;;;5.85;4.30;;;12.90;99.90;;;;;;5091731;28;20046;-74
2022/08/09 04:27:39;;;;;;;4.28;3.50;;;12.80;99.90;;;;;;5091669;28;20075;-74
2022/08/09 04:30:09;;;;;;;5.10;4.00;;;13.00;99.90;;;;;;5091650;28;20404;-75
2022/08/09 04:32:34;;;;;;;8.07;3.92;;;12.90;99.90;;;;;;5091841;28;20052;-75
2022/08/09 04:35:00;;;;;;;7.30;3.72;;;13.10;99.90;;;;;;5091627;28;20048;-74
2022/08/09 04:37:26;;;;;;;8.77;3.60;;;12.90;99.90;;;;;;5091682;28;20465;-74
2022/08/09 04:39:51;;;;;;;6.18;3.53;;;13.20;99.90;;;;;;5091524;28;20127;-74
2022/08/09 04:42:17;;;;;;;6.78;3.47;;;13.10;99.90;;;;;;5090668;28;20075;-74
2022/08/09 04:44:43;;;;;;;8.15;3.45;;;13.20;99.90;;;;;;5091816;28;20503;-74
2022/08/09 04:47:08;;;;;;;7.40;3.63;;;12.80;99.90;;;;;;5091816;28;20070;-74
2022/08/09 04:49:37;;;;;;;5.15;3.33;;;13.00;99.90;;;;;;5090108;28;20051;-74
2022/08/09 04:52:05;;;;;;;6.28;3.72;;;12.70;99.90;;;;;;5091668;28;20452;-74
2022/08/09 04:54:32;;;;;;;7.20;3.50;;;13.00;99.90;;;;;;5091447;28;20380;-75
2022/08/09 04:56:58;;;;;;;6.85;3.50;;;13.30;99.90;;;;;;5091651;28;20040;-74
2022/08/09 04:59:24;;;;;;;;;;;12.70;99.90;;;;;;5091891;28;20085;-74
2022/08/09 05:01:49;;;;;;;5.95;3.60;;;12.90;99.90;;;;;;5091543;28;20018;-74
2022/08/09 05:04:15;;;;;;;8.80;3.58;;;12.90;99.90;;;;;;5090145;28;20055;-75
2022/08/09 05:06:41;;;;;;;11.20;3.17;;;13.20;99.90;;;;;;5090105;28;20495;-74
2022/08/09 05:09:07;;;;;;;9.15;3.50;;;12.80;99.90;;;;;;5091360;28;20087;-75
2022/08/09 05:11:33;;;;;;;7.80;3.35;;;13.00;99.90;;;;;;5091480;28;20391;-75
2022/08/09 05:13:58;;;;;;;7.88;3.90;;;13.20;99.90;;;;;;5091633;28;20043;-74
2022/08/09 05:16:24;;;;;;;6.28;3.35;;;13.40;99.90;;;;;;5091447;28;20097;-74
2022/08/09 05:18:50;;;;;;;10.00;3.80;;;13.50;99.90;;;;;;5090998;28;20127;-74
2022/08/09 05:21:16;;;;;;;7.07;3.90;;;14.40;99.90;;;;;;5091443;28;20076;-74
2022/08/09 05:23:42;;;;;;;7.78;4.60;;;13.80;99.90;;;;;;5091161;28;20044;-75
2022/08/09 05:26:08;;;;;;;11.00;5.43;;;13.80;99.90;;;;;;5091519;28;20052;-74
2022/08/09 05:28:33;;;;;;;11.02;6.10;;;14.30;99.90;;;;;;5089842;28;20044;-74
2022/08/09 05:30:59;;;;;;;10.23;6.82;;;13.90;99.90;;;;;;5091256;28;20060;-76
2022/08/09 05:33:25;;;;;;;14.05;6.30;;;14.80;99.90;;;;;;5090941;28;20109;-75
2022/08/09 05:35:50;;;;;;;;;;;14.40;99.90;;;;;;5091135;28;20052;-77
2022/08/09 05:38:16;;;;;;;9.48;5.15;;;15.10;99.90;;;;;;5076944;28;19927;-73
2022/08/09 05:40:42;;;;;;;8.95;5.85;;;14.30;99.90;;;;;;5094976;28;20047;-74
2022/08/09 05:43:07;;;;;;;14.32;7.07;;;14.50;99.90;;;;;;5094926;28;20048;-74
2022/08/09 05:45:33;;;;;;;10.27;7.22;;;14.50;99.90;;;;;;5094832;28;20085;-74
2022/08/09 05:47:59;;;;;;;13.35;7.05;;;14.70;99.90;;;;;;5094562;28;20532;-75
2022/08/09 05:50:25;;;;;;;12.10;7.13;;;15.10;99.90;;;;;;5090618;28;20043;-76
2022/08/09 05:52:51;;;;;;;12.98;6.78;;;15.00;99.90;;;;;;5092320;28;20459;-74
2022/08/09 05:55:17;;;;;;;11.70;7.25;;;15.50;99.90;;;;;;5092609;28;20557;-73
2022/08/09 05:57:43;;;;;;;11.68;7.70;;;15.00;99.90;;;;;;5093163;28;20044;-74
2022/08/09 06:00:09;;;;;;;;;;;15.30;99.90;;;;;;5093061;28;20040;-73
2022/08/09 06:02:35;;;;;;;12.02;7.57;;;15.80;99.90;;;;;;5092861;28;19927;-74
2022/08/09 06:05:01;;;;;;;12.75;8.60;;;15.80;99.90;;;;;;5092184;28;20046;-73
2022/08/09 06:07:28;;;;;;;14.32;8.32;;;15.70;99.90;;;;;;5092369;28;20059;-73
2022/08/09 06:09:54;;;;;;;13.68;8.02;;;15.90;99.90;;;;;;5093127;28;20094;-72
2022/08/09 06:12:20;;;;;;;11.77;8.40;;;16.00;99.90;;;;;;5092680;28;20052;-73
2022/08/09 06:14:46;;;;;;;14.35;8.80;;;16.30;99.90;;;;;;5092516;28;20058;-74
2022/08/09 06:17:11;;;;;;;;;;;16.10;99.90;;;;;;5090914;28;20051;-73
2022/08/09 06:19:37;;;;;;;12.07;8.65;;;16.40;99.90;;;;;;5091860;28;19924;-73
2022/08/09 06:22:03;;;;;;;;;;;16.40;99.90;;;;;;5091323;28;20048;-73
2022/08/09 06:24:28;;;;;;;13.77;8.00;;;16.90;99.90;;;;;;5092621;28;19920;-72
2022/08/09 06:26:54;;;;;;;;;;;16.70;99.90;;;;;;5091075;28;20052;-74
2022/08/09 06:29:20;;;;;;;13.27;7.13;;;16.90;99.90;;;;;;5090621;28;19931;-73
2022/08/09 06:31:46;;;;;;;;;;;17.10;99.90;;;;;;5092703;28;20063;-77
2022/08/09 06:34:11;;;;;;;9.18;6.53;;;17.60;99.90;;;;;;5092293;28;19924;-73
2022/08/09 06:36:37;;;;;;;;;;;17.40;99.90;;;;;;5091672;28;20047;-75
2022/08/09 06:39:03;;;;;;;9.65;5.03;;;17.50;99.90;;;;;;5092276;28;20010;-73
2022/08/09 06:41:29;;;;;;;9.38;5.47;;;17.50;99.90;;;;;;5091181;28;20044;-73
2022/08/09 06:43:54;;;;;;;;;;;17.50;99.90;;;;;;5091331;28;20059;-74
2022/08/09 06:46:20;;;;;;;7.80;5.15;;;17.50;99.90;;;;;;5090190;28;19924;-75
2022/08/09 06:48:45;;;;;;;;;;;17.70;99.90;;;;;;5091146;28;20052;-75
2022/08/09 06:51:11;;;;;;;9.15;5.32;;;17.70;99.90;;;;;;5091780;28;19920;-75
2022/08/09 06:53:37;;;;;;;;;;;17.90;99.90;;;;;;5090997;28;20118;-74
2022/08/09 06:56:03;;;;;;;5.47;4.63;;;17.90;99.90;;;;;;5091212;28;19924;-74
2022/08/09 06:58:29;;;;;;;;;;;17.80;99.90;;;;;;5091704;28;20050;-74
2022/08/09 07:00:55;;;;;;;6.72;4.80;;;18.00;99.90;;;;;;5091833;28;19924;-73
2022/08/09 07:03:22;;;;;;;8.18;5.10;;;18.30;99.90;;;;;;5091831;28;20051;-73
2022/08/09 07:05:47;;;;;;;6.82;4.88;;;17.80;99.90;;;;;;5090111;28;20052;-73
2022/08/09 07:08:13;;;;;;;8.90;4.22;;;17.70;99.90;;;;;;5091809;28;20138;-73
2022/08/09 07:10:39;;;;;;;7.53;4.50;;;17.70;99.90;;;;;;5091825;28;20043;-73
2022/08/09 07:13:05;;;;;;;6.72;4.95;;;17.60;99.90;;;;;;5091191;28;20070;-73
2022/08/09 07:15:30;;;;;;;;;;;17.90;99.90;;;;;;5087598;28;20047;-78
2022/08/09 07:17:56;;;;;;;4.70;4.13;;;18.00;99.90;;;;;;5091450;28;19924;-76
2022/08/09 07:20:24;;;;;;;8.85;4.60;;;18.00;99.90;;;;;;5090717;28;20044;-74
2022/08/09 07:22:50;;;;;;;7.10;3.58;;;18.30;99.90;;;;;;5088968;28;20554;-69
2022/08/09 07:25:16;;;;;;;5.20;3.08;;;17.90;99.90;;;;;;5097185;28;20066;-80
2022/08/09 07:27:42;;;;;;;4.65;2.88;;;17.80;99.90;;;;;;5112932;28;20043;-77
2022/08/09 07:30:12;;;;;;;4.97;2.80;;;18.10;99.90;;;;;;5112013;28;20055;-78
2022/08/09 07:32:38;;;;;;;5.18;2.45;;;18.10;99.90;;;;;;5112758;28;20403;-79
2022/08/09 07:35:06;;;;;;;5.53;2.65;;;18.10;99.90;;;;;;5112566;28;20495;-76
2022/08/09 07:37:32;;;;;;;6.95;2.75;;;18.10;99.90;;;;;;5113023;28;20052;-77
2022/08/09 07:39:57;;;;;;;6.15;2.83;;;18.10;99.90;;;;;;5097546;28;20538;-78
2022/08/09 07:42:23;;;;;;;;;;;18.60;99.90;;;;;;5090319;28;20044;-79
2022/08/09 07:44:50;;;;;;;6.22;3.40;;;18.10;99.90;;;;;;5090317;28;20003;-79
2022/08/09 07:47:16;;;;;;;8.57;3.30;;;18.50;99.90;;;;;;5090616;28;20044;-79
2022/08/09 07:49:42;;;;;;;4.18;3.63;;;18.20;99.90;;;;;;5090939;28;20586;-79
2022/08/09 07:52:08;;;;;;;8.05;3.60;;;18.60;99.90;;;;;;5090241;28;20558;-79
2022/08/09 07:54:34;;;;;;;6.80;3.85;;;18.50;99.90;;;;;;5090799;28;20048;-79
2022/08/09 07:56:59;;;;;;;5.05;2.65;;;18.50;99.90;;;;;;5090763;28;20083;-79
2022/08/09 07:59:25;;;;;;;4.30;2.63;;;18.30;99.90;;;;;;5090491;28;20063;-78
2022/08/09 08:01:54;;;;;;;5.32;2.72;;;18.90;99.90;;;;;;5090155;28;20079;-78
2022/08/09 08:04:21;;;;;;;3.42;1.95;;;18.80;99.90;;;;;;5088549;28;20048;-80
2022/08/09 08:06:47;;;;;;;8.45;1.70;;;18.80;99.90;;;;;;5083992;28;20044;-74
2022/08/09 08:09:12;;;;;;;2.65;1.95;;;18.50;99.90;;;;;;5089265;28;20051;-79
2022/08/09 08:11:38;;;;;;;4.70;1.70;;;18.60;99.90;;;;;;5089192;28;20040;-75
2022/08/09 08:14:04;;;;;;;6.03;1.70;;;18.70;99.90;;;;;;5090111;28;20043;-77
2022/08/09 08:16:31;;;;;;;3.03;1.40;;;19.00;99.90;;;;;;5090560;28;20071;-79
2022/08/09 08:18:57;;;;;;;4.03;1.85;;;19.10;99.90;;;;;;5088727;28;20044;-75
2022/08/09 08:21:23;;;;;;;2.83;1.50;;;19.20;99.90;;;;;;5089504;28;20047;-77
2022/08/09 08:23:49;;;;;;;7.55;2.58;;;19.50;99.90;;;;;;5090665;28;20096;-71
2022/08/09 08:26:15;;;;;;;5.55;1.65;;;19.50;99.90;;;;;;5089970;28;20547;-74
2022/08/09 08:28:41;;;;;;;3.08;1.60;;;20.00;99.90;;;;;;5089537;28;20044;-77
2022/08/09 08:31:06;;;;;;;1.73;1.20;;;19.70;99.90;;;;;;5089978;28;20052;-72
2022/08/09 08:33:32;;;;;;;6.28;1.75;;;19.90;99.90;;;;;;5090491;28;20040;-76
2022/08/09 08:35:58;;;;;;;2.17;1.33;;;20.20;99.90;;;;;;5089607;28;20083;-75
2022/08/09 08:38:24;;;;;;;3.47;1.40;;;20.40;99.90;;;;;;5089885;28;20563;-73
2022/08/09 08:40:51;;;;;;;3.42;2.35;;;20.10;99.90;;;;;;5089672;28;20043;-77
2022/08/09 08:43:17;;;;;;;5.20;1.10;;;20.80;99.90;;;;;;5089681;28;20062;-70
2022/08/09 08:46:04;;;;;;;5.13;1.60;;;20.60;99.90;;;;;;5090094;28;20040;-76
2022/08/09 08:48:31;;;;;;;4.57;1.90;;;20.40;99.90;;;;;;5089930;28;20058;-74
2022/08/09 08:50:57;;;;;;;8.35;1.30;;;20.70;99.90;;;;;;5089095;28;20171;-73
2022/08/09 08:53:23;;;;;;;2.38;1.50;;;20.90;99.90;;;;;;5090533;28;20498;-76
2022/08/09 08:55:49;;;;;;;4.53;1.63;;;21.20;99.90;;;;;;5089690;28;20044;-77
2022/08/09 08:58:15;;;;;;;8.45;1.83;;;21.40;99.90;;;;;;5089347;28;20467;-74
2022/08/09 09:00:43;;;;;;;1.85;1.60;;;21.30;99.90;;;;;;5088103;28;20126;-73
2022/08/09 09:03:10;;;;;;;5.50;2.13;;;21.30;99.90;;;;;;5090511;28;20067;-75
2022/08/09 09:05:35;;;;;;;9.15;1.58;;;21.60;99.90;;;;;;5089626;28;20051;-76
2022/08/09 09:08:02;;;;;;;3.50;1.52;;;21.50;99.90;;;;;;5090160;28;20044;-76
2022/08/09 09:10:29;;;;;;;2.58;1.70;;;22.00;99.90;;;;;;5089204;28;20044;-76
2022/08/09 09:12:55;;;;;;;2.67;1.40;;;21.90;99.90;;;;;;5093581;28;20090;-76
2022/08/09 09:15:21;;;;;;;2.88;1.80;;;22.10;99.90;;;;;;5093782;28;20155;-79
2022/08/09 09:17:47;;;;;;;2.97;1.40;;;22.00;99.90;;;;;;5088632;28;20135;-76
2022/08/09 09:20:14;;;;;;;2.22;1.30;;;22.10;99.90;;;;;;5092118;28;20048;-76
2022/08/09 09:22:57;;;;;;;2.25;1.20;;;22.20;99.90;;;;;;5092234;28;20043;-75
2022/08/09 09:25:35;;;;;;;2.72;1.30;;;22.00;99.90;;;;;;5093493;28;20131;-76
2022/08/09 09:28:01;;;;;;;1.60;1.20;;;21.90;99.90;;;;;;5091598;28;20056;-73
2022/08/09 09:30:27;;;;;;;1.50;0.95;;;22.10;99.90;;;;;;5092151;28;20052;-74
2022/08/09 09:33:01;;;;;;;2.65;1.10;;;21.90;99.90;;;;;;5093537;28;20051;-75
2022/08/09 09:35:27;;;;;;;2.92;1.10;;;21.80;99.90;;;;;;5092560;28;20052;-76
2022/08/09 09:37:53;;;;;;;2.22;1.10;;;21.90;99.90;;;;;;5093661;28;20052;-75
2022/08/09 09:40:19;;;;;;;3.03;1.30;;;22.10;99.90;;;;;;5092753;28;20418;-69
2022/08/09 09:42:55;;;;;;;2.05;1.00;;;22.00;99.90;;;;;;5093333;28;20051;-74
2022/08/09 09:45:22;;;;;;;1.33;1.00;;;21.90;99.90;;;;;;5092318;28;20483;-75
2022/08/09 09:47:48;;;;;;;2.30;0.80;;;22.30;99.90;;;;;;5093487;28;20406;-75
2022/08/09 09:50:20;;;;;;;2.42;1.10;;;22.10;99.90;;;;;;5093063;28;20126;-71
2022/08/09 09:52:50;;;;;;;3.85;2.38;;;22.10;99.90;;;;;;5092016;28;20464;-71
2022/08/09 09:55:16;;;;;;;0.75;0.75;;;22.30;99.90;;;;;;5091987;28;20644;-77
2022/08/09 09:57:57;;;;;;;2.10;0.90;;;22.50;99.90;;;;;;5093258;28;20059;-73
2022/08/09 10:00:23;;;;;;;1.45;1.15;;;22.10;99.90;;;;;;5092526;28;20040;-69
2022/08/09 10:02:49;;;;;;;1.30;1.10;;;22.50;99.90;;;;;;5092324;28;20626;-72
2022/08/09 10:05:15;;;;;;;2.38;1.20;;;22.60;99.90;;;;;;5092939;28;20122;-74
2022/08/09 10:07:40;;;;;;;1.45;0.85;;;22.60;99.90;;;;;;5092427;28;20040;-74
2022/08/09 10:10:07;;;;;;;1.95;1.00;;;22.70;99.90;;;;;;5093426;28;20062;-68
2022/08/09 10:12:43;;;;;;;3.58;1.25;;;23.20;99.90;;;;;;5094110;28;20044;-73
2022/08/09 10:15:13;;;;;;;4.47;0.80;;;23.20;99.90;;;;;;5094094;28;20048;-73
2022/08/09 10:17:39;;;;;;;1.25;0.90;;;22.70;99.90;;;;;;5094047;28;20051;-74
2022/08/09 10:20:24;;;;;;;1.15;0.93;;;23.00;99.90;;;;;;5093607;28;20037;-74
2022/08/09 10:22:54;;;;;;;2.70;1.00;;;23.10;99.90;;;;;;5073278;28;20049;-75
2022/08/09 10:25:21;;;;;;;1.77;0.73;;;23.60;99.90;;;;;;5073886;28;20044;-71
2022/08/09 10:27:47;;;;;;;2.75;1.10;;;23.50;99.90;;;;;;5087927;28;20047;-71
2022/08/09 10:30:13;;;;;;;4.35;1.00;;;23.20;99.90;;;;;;5093570;28;20494;-74
2022/08/09 10:32:40;;;;;;;1.17;0.77;;;23.20;99.90;;;;;;5092419;28;20048;-71
2022/08/09 10:35:07;;;;;;;1.52;0.90;;;22.80;99.90;;;;;;5093821;28;20048;-70
2022/08/09 10:37:32;;;;;;;2.38;1.02;;;23.00;99.90;;;;;;5091648;28;20051;-68
2022/08/09 10:39:59;;;;;;;2.22;1.05;;;23.00;99.90;;;;;;5093629;28;20040;-74
2022/08/09 10:42:25;;;;;;;2.00;1.10;;;23.00;99.90;;;;;;5093352;28;20050;-66
2022/08/09 10:45:05;;;;;;;1.65;0.80;;;22.90;99.90;;;;;;5093464;28;20052;-73
2022/08/09 10:47:52;;;;;;;2.97;0.77;;;23.20;99.90;;;;;;5093785;28;20036;-71
2022/08/09 10:51:05;;;;;;;2.67;0.70;;;22.90;99.90;;;;;;5093310;28;20040;-69
2022/08/09 10:53:19;;;;;;;2.10;0.80;;;23.10;99.90;;;;;;5092801;28;20062;-75
2022/08/09 10:55:45;;;;;;;1.42;1.00;;;22.80;99.90;;;;;;5093349;28;20109;-71
2022/08/09 10:58:31;;;;;;;1.52;0.80;;;23.30;99.90;;;;;;5093441;28;20055;-74
2022/08/09 11:00:57;;;;;;;1.10;0.60;;;23.40;99.90;;;;;;5093238;28;20043;-72
2022/08/09 11:03:24;;;;;;;2.08;0.85;;;23.10;99.90;;;;;;5092969;28;20470;-74
2022/08/09 11:06:24;;;;;;;0.70;0.70;;;22.70;99.90;;;;;;5092893;28;20055;-72
2022/08/09 11:08:51;;;;;;;1.85;0.70;;;22.60;99.90;;;;;;5092791;28;20497;-75
2022/08/09 11:11:18;;;;;;;2.25;0.82;;;22.90;99.90;;;;;;5092877;28;20048;-70
2022/08/09 11:13:44;;;;;;;0.80;0.80;;;23.30;99.90;;;;;;5093101;28;20448;-74
2022/08/09 11:16:32;;;;;;;1.60;0.73;;;23.10;99.90;;;;;;5092780;28;20046;-75
2022/08/09 11:18:57;;;;;;;3.00;0.80;;;23.00;99.90;;;;;;5093020;28;20040;-71
2022/08/09 11:21:48;;;;;;;0.90;0.80;;;23.30;99.90;;;;;;5092502;28;20130;-69
2022/08/09 11:24:14;;;;;;;1.70;0.77;;;23.60;99.90;;;;;;5092929;28;20059;-71
2022/08/09 11:26:40;;;;;;;1.50;0.90;;;23.60;99.90;;;;;;5092637;28;20169;-74
2022/08/09 11:29:06;;;;;;;1.00;0.70;;;23.40;99.90;;;;;;5092353;28;20054;-73
2022/08/09 11:31:47;;;;;;;8.15;1.20;;;23.00;99.90;;;;;;5093184;28;20052;-73
2022/08/09 11:34:42;;;;;;;0.95;0.75;;;23.10;99.90;;;;;;5092134;28;20142;-74
2022/08/09 11:37:10;;;;;;;2.00;1.10;;;23.00;99.90;;;;;;5091118;28;20068;-72
2022/08/09 11:39:58;;;;;;;3.80;1.00;;;23.40;99.90;;;;;;5092829;28;20040;-75
2022/08/09 11:42:38;;;;;;;4.38;1.00;;;23.40;99.90;;;;;;5091132;28;20048;-72
2022/08/09 11:45:04;;;;;;;3.25;0.80;;;23.70;99.90;;;;;;5092635;28;20420;-73
2022/08/09 11:47:50;;;;;;;2.35;1.30;;;23.60;99.90;;;;;;5092162;28;20496;-71
2022/08/09 11:50:15;;;;;;;1.53;0.70;;;23.60;99.90;;;;;;5092036;28;20050;-71
2022/08/09 11:53:00;;;;;;;2.92;1.15;;;23.60;99.90;;;;;;5092293;28;20043;-73
2022/08/09 11:55:39;;;;;;;1.60;1.00;;;23.80;99.90;;;;;;5092316;28;20075;-75
2022/08/09 11:58:40;;;;;;;4.25;1.08;;;23.90;99.90;;;;;;5091954;28;20119;-74
2022/08/09 12:01:06;;;;;;;3.65;1.13;;;24.40;99.90;;;;;;5092289;28;20058;-71
2022/08/09 12:03:32;;;;;;;1.27;0.80;;;23.90;99.90;;;;;;5092248;28;20040;-77
2022/08/09 12:06:00;;;;;;;1.17;0.80;;;23.10;99.90;;;;;;5092042;28;20071;-74
2022/08/09 12:08:28;;;;;;;1.10;1.02;;;22.90;99.90;;;;;;5091651;28;20043;-74
2022/08/09 12:10:59;;;;;;;2.33;0.80;;;23.10;99.90;;;;;;5090983;28;20127;-69
2022/08/09 12:13:35;;;;;;;1.48;0.90;;;23.30;99.90;;;;;;5091750;28;20412;-74
2022/08/09 12:16:21;;;;;;;2.55;0.90;;;23.10;99.90;;;;;;5090595;28;20126;-75
2022/08/09 12:18:49;;;;;;;1.70;0.70;;;22.90;99.90;;;;;;5091683;28;20040;-76
2022/08/09 12:21:25;;;;;;;3.55;1.00;;;22.50;99.90;;;;;;5091829;28;20419;-75
2022/08/09 12:23:52;;;;;;;1.35;0.70;;;23.10;99.90;;;;;;5091791;28;20052;-75
2022/08/09 12:26:20;;;;;;;1.70;0.95;;;23.30;99.90;;;;;;5091681;28;20054;-75
2022/08/09 12:28:51;;;;;;;0.98;0.70;;;23.60;99.90;;;;;;5090329;28;20047;-72
2022/08/09 12:31:28;;;;;;;1.10;0.70;;;23.40;99.90;;;;;;5090477;28;20059;-74
2022/08/09 12:33:55;;;;;;;1.10;0.80;;;23.40;99.90;;;;;;5091669;28;20399;-74
2022/08/09 12:36:22;;;;;;;1.98;0.70;;;23.20;99.90;;;;;;5091737;28;20052;-74
2022/08/09 12:38:52;;;;;;;2.53;0.80;;;23.30;99.90;;;;;;5091603;28;20055;-74
2022/08/09 12:41:26;;;;;;;2.00;0.70;;;23.20;99.90;;;;;;5091581;28;20056;-74
2022/08/09 12:43:53;;;;;;;2.60;0.80;;;23.80;99.90;;;;;;5091405;28;20097;-69
2022/08/09 12:46:19;;;;;;;2.75;1.02;;;21.50;99.90;;;;;;5094572;28;20056;-75
2022/08/09 12:48:45;;;;;;;2.45;0.90;;;23.70;99.90;;;;;;5095465;28;20052;-75
2022/08/09 12:51:11;;;;;;;1.48;0.80;;;23.60;99.90;;;;;;5095700;28;20055;-74
2022/08/09 12:53:38;;;;;;;1.67;0.60;;;23.60;99.90;;;;;;5095902;28;20051;-75
2022/08/09 12:56:21;;;;;;;0.73;0.60;;;23.70;99.90;;;;;;5095539;28;20048;-75
2022/08/09 12:59:11;;;;;;;0.63;0.60;;;24.00;99.90;;;;;;5095713;28;20044;-76
2022/08/09 13:02:04;;;;;;;0.43;0.43;;;24.30;99.90;;;;;;5095084;28;20135;-70